createdAt,value
2022-11-19T00:01:22.036Z,98.96
2022-11-19T00:03:52.653Z,99.42
2022-11-19T00:06:25.204Z,99.43
2022-11-19T00:08:52.557Z,97.83
2022-11-19T00:11:43.413Z,97.48
2022-11-19T00:14:12.809Z,97.73
2022-11-19T00:16:40.237Z,99.06
2022-11-19T00:19:07.431Z,97.98
2022-11-19T00:21:34.616Z,97.82
2022-11-19T00:24:01.839Z,98.65
2022-11-19T00:26:29.056Z,99.82
2022-11-19T00:28:56.319Z,98.75
2022-11-19T00:31:23.498Z,98.24
2022-11-19T00:33:50.811Z,99.69
2022-11-19T00:36:18.472Z,99.64
2022-11-19T00:38:45.824Z,100.00
2022-11-19T00:41:13.023Z,99.32
2022-11-19T00:43:49.981Z,99.70
2022-11-19T00:46:26.142Z,99.10
2022-11-19T00:48:55.277Z,99.65
2022-11-19T00:51:24.033Z,99.14
2022-11-19T00:53:51.627Z,98.74
2022-11-19T00:56:21.157Z,99.16
2022-11-19T00:58:48.815Z,98.72
2022-11-19T01:01:17.694Z,99.32
2022-11-19T01:03:47.817Z,99.22
2022-11-19T01:06:19.411Z,100.00
2022-11-19T01:08:47.875Z,99.87
2022-11-19T01:11:18.715Z,100.00
2022-11-19T01:13:46.202Z,98.94
2022-11-19T01:16:18.954Z,99.18
2022-11-19T01:18:47.614Z,98.98
2022-11-19T01:21:15.543Z,99.76
2022-11-19T01:23:43.507Z,98.36
2022-11-19T01:26:11.983Z,99.71
2022-11-19T01:28:39.363Z,99.03
2022-11-19T01:31:15.051Z,100.00
2022-11-19T01:33:42.480Z,100.00
2022-11-19T01:36:16.503Z,100.00
2022-11-19T01:38:43.863Z,99.17
2022-11-19T01:41:11.216Z,98.70
2022-11-19T01:43:58.948Z,99.84
2022-11-19T01:46:29.156Z,100.00
2022-11-19T01:48:59.362Z,99.66
2022-11-19T01:51:45.828Z,98.81
2022-11-19T01:54:33.900Z,99.97
2022-11-19T01:57:04.699Z,99.81
2022-11-19T01:59:32.195Z,98.80
2022-11-19T02:01:59.558Z,99.43
2022-11-19T02:04:27.650Z,100.00
2022-11-19T02:06:55.436Z,100.00
2022-11-19T02:09:23.308Z,100.00
2022-11-19T02:12:16.943Z,99.44
2022-11-19T02:15:10.694Z,98.83
2022-11-19T02:17:49.781Z,98.69
2022-11-19T02:20:35.063Z,98.59
2022-11-19T02:23:45.984Z,99.21
2022-11-19T02:26:21.787Z,100.00
2022-11-19T02:29:10.101Z,99.72
2022-11-19T02:31:39.593Z,99.62
2022-11-19T02:34:46.675Z,99.90
2022-11-19T02:37:34.994Z,99.55
2022-11-19T02:40:37.544Z,99.08
2022-11-19T02:43:36.237Z,98.64
2022-11-19T02:46:12.075Z,100.00
2022-11-19T02:48:42.454Z,100.00
2022-11-19T02:51:10.095Z,99.43
2022-11-19T02:53:37.311Z,100.00
2022-11-19T02:56:17.119Z,99.73
2022-11-19T02:59:09.463Z,99.93
2022-11-19T03:01:58.886Z,99.38
2022-11-19T03:04:30.013Z,100.00
2022-11-19T03:07:09.706Z,100.00
2022-11-19T03:09:40.074Z,100.00
2022-11-19T03:12:30.781Z,98.87
2022-11-19T03:15:22.817Z,100.00
2022-11-19T03:18:32.025Z,99.01
2022-11-19T03:21:11.610Z,100.00
2022-11-19T03:23:43.216Z,98.68
2022-11-19T03:26:25.494Z,99.25
2022-11-19T03:28:53.957Z,99.61
2022-11-19T03:31:22.140Z,100.00
2022-11-19T03:33:52.653Z,100.00
2022-11-19T03:36:32.820Z,99.35
2022-11-19T03:39:10.454Z,99.17
2022-11-19T03:41:39.707Z,100.00
2022-11-19T03:44:08.637Z,99.21
2022-11-19T03:46:36.596Z,99.63
2022-11-19T03:49:04.882Z,100.00
2022-11-19T03:52:01.457Z,99.96
2022-11-19T03:54:28.890Z,98.97
2022-11-19T03:56:57.062Z,98.47
2022-11-19T03:59:29.230Z,99.74
2022-11-19T04:02:00.809Z,99.74
2022-11-19T04:04:37.418Z,98.96
2022-11-19T04:07:22.279Z,99.08
2022-11-19T04:09:49.879Z,98.57
2022-11-19T04:12:24.961Z,98.85
2022-11-19T04:14:52.766Z,98.90
2022-11-19T04:17:20.610Z,98.63
2022-11-19T04:19:48.137Z,99.09
2022-11-19T04:22:15.318Z,99.10
2022-11-19T04:24:42.501Z,98.59
2022-11-19T04:27:09.676Z,98.90
2022-11-19T04:29:36.974Z,98.54
2022-11-19T04:32:04.245Z,97.28
2022-11-19T04:34:31.447Z,97.64
2022-11-19T04:36:59.419Z,98.60
2022-11-19T04:39:26.845Z,98.50
2022-11-19T04:41:54.066Z,96.66
2022-11-19T04:44:21.265Z,97.22
2022-11-19T04:46:48.585Z,96.59
2022-11-19T04:49:15.790Z,98.05
2022-11-19T04:51:42.967Z,96.26
2022-11-19T04:54:10.270Z,96.51
2022-11-19T04:56:38.011Z,96.58
2022-11-19T04:59:05.671Z,96.72
2022-11-19T05:01:32.978Z,97.94
2022-11-19T05:04:00.202Z,97.44
2022-11-19T05:06:27.402Z,96.41
2022-11-19T05:08:54.650Z,96.58
2022-11-19T05:11:21.993Z,98.03
2022-11-19T05:13:49.184Z,97.46
2022-11-19T05:16:16.401Z,96.83
2022-11-19T05:18:43.718Z,97.85
2022-11-19T05:21:10.888Z,97.01
2022-11-19T05:23:38.103Z,96.40
2022-11-19T05:26:05.313Z,97.53
2022-11-19T05:28:39.159Z,98.17
2022-11-19T05:31:07.738Z,98.14
2022-11-19T05:33:34.964Z,97.43
2022-11-19T05:36:02.501Z,96.87
2022-11-19T05:38:29.780Z,97.21
2022-11-19T05:40:56.925Z,97.37
2022-11-19T05:43:24.109Z,97.21
2022-11-19T05:45:51.628Z,97.37
2022-11-19T05:48:18.821Z,97.75
2022-11-19T05:50:46.005Z,98.54
2022-11-19T05:53:13.183Z,98.48
2022-11-19T05:55:40.374Z,98.49
2022-11-19T05:58:07.538Z,97.91
2022-11-19T06:00:34.772Z,97.68
2022-11-19T06:03:02.056Z,97.71
2022-11-19T06:05:29.296Z,98.81
2022-11-19T06:07:56.475Z,98.73
2022-11-19T06:10:23.768Z,98.15
2022-11-19T06:12:50.946Z,97.23
2022-11-19T06:15:18.236Z,97.33
2022-11-19T06:17:45.432Z,97.09
2022-11-19T06:20:12.729Z,97.23
2022-11-19T06:22:40.110Z,96.48
2022-11-19T06:25:08.118Z,97.05
2022-11-19T06:27:35.402Z,97.24
2022-11-19T06:30:03.196Z,95.95
2022-11-19T06:32:30.413Z,97.49
2022-11-19T06:34:57.577Z,96.17
2022-11-19T06:37:25.037Z,97.39
2022-11-19T06:39:52.260Z,96.71
2022-11-19T06:42:37.957Z,97.02
2022-11-19T06:45:09.521Z,97.62
2022-11-19T06:47:37.166Z,98.59
2022-11-19T06:50:05.471Z,97.83
2022-11-19T06:52:32.675Z,98.74
2022-11-19T06:54:59.895Z,97.94
2022-11-19T06:57:27.422Z,97.73
2022-11-19T06:59:54.659Z,97.83
2022-11-19T07:02:21.992Z,98.32
2022-11-19T07:04:49.517Z,99.14
2022-11-19T07:07:16.773Z,99.56
2022-11-19T07:09:44.217Z,98.34
2022-11-19T07:12:11.429Z,99.13
2022-11-19T07:14:38.612Z,99.95
2022-11-19T07:17:06.333Z,98.97
2022-11-19T07:19:33.618Z,99.59
2022-11-19T07:22:00.901Z,99.54
2022-11-19T07:24:28.095Z,100.00
2022-11-19T07:26:56.292Z,99.65
2022-11-19T07:29:23.710Z,99.52
2022-11-19T07:31:53.232Z,100.00
2022-11-19T07:34:20.633Z,100.00
2022-11-19T07:36:48.392Z,100.00
2022-11-19T07:39:15.854Z,100.00
2022-11-19T07:42:01.859Z,99.96
2022-11-19T07:44:29.082Z,99.85
2022-11-19T07:46:56.282Z,100.00
2022-11-19T07:49:24.853Z,99.75
2022-11-19T07:51:53.296Z,99.61
2022-11-19T07:54:20.540Z,99.99
2022-11-19T07:56:47.721Z,99.82
2022-11-19T07:59:14.911Z,100.00
2022-11-19T08:01:42.141Z,99.71
2022-11-19T08:04:09.638Z,99.89
2022-11-19T08:06:36.996Z,100.00
2022-11-19T08:09:04.991Z,100.00
2022-11-19T08:11:32.462Z,100.00
2022-11-19T08:14:01.474Z,100.00
2022-11-19T08:16:47.579Z,100.00
2022-11-19T08:19:16.450Z,100.00
2022-11-19T08:21:46.167Z,100.00
2022-11-19T08:24:14.755Z,100.00
2022-11-19T08:26:43.616Z,100.00
2022-11-19T08:29:16.206Z,99.75
2022-11-19T08:31:45.992Z,98.92
2022-11-19T08:34:13.371Z,97.95
2022-11-19T08:36:40.640Z,97.35
2022-11-19T08:39:09.261Z,97.28
2022-11-19T08:41:55.194Z,97.51
2022-11-19T08:44:22.895Z,96.76
2022-11-19T08:46:50.558Z,96.43
2022-11-19T08:49:18.410Z,96.49
2022-11-19T08:51:45.608Z,95.47
2022-11-19T08:54:13.221Z,95.15
2022-11-19T08:56:40.459Z,95.33
2022-11-19T08:59:07.841Z,94.35
2022-11-19T09:01:35.023Z,94.21
2022-11-19T09:04:02.218Z,93.20
2022-11-19T09:06:29.411Z,93.33
2022-11-19T09:08:58.317Z,92.40
2022-11-19T09:11:25.587Z,92.01
2022-11-19T09:13:53.093Z,91.77
2022-11-19T09:16:20.444Z,92.00
2022-11-19T09:18:47.702Z,91.61
2022-11-19T09:21:17.033Z,91.31
2022-11-19T09:23:44.183Z,91.69
2022-11-19T09:26:15.948Z,92.11
2022-11-19T09:28:43.544Z,92.83
2022-11-19T09:31:14.410Z,93.02
2022-11-19T09:33:43.945Z,92.78
2022-11-19T09:36:12.321Z,93.23
2022-11-19T09:38:40.220Z,93.35
2022-11-19T09:41:26.312Z,93.05
2022-11-19T09:44:13.362Z,92.67
2022-11-19T09:47:08.429Z,93.32
2022-11-19T09:49:42.191Z,92.38
2022-11-19T09:52:20.152Z,91.73
2022-11-19T09:54:55.287Z,92.50
2022-11-19T09:57:40.203Z,92.07
2022-11-19T10:00:08.767Z,91.84
2022-11-19T10:02:35.958Z,92.11
2022-11-19T10:05:04.079Z,92.47
2022-11-19T10:07:53.634Z,90.97
2022-11-19T10:10:42.981Z,89.54
2022-11-19T10:13:22.662Z,89.59
2022-11-19T10:16:18.478Z,89.05
2022-11-19T10:19:23.152Z,89.24
2022-11-19T10:22:04.349Z,89.43
2022-11-19T10:24:50.047Z,87.39
2022-11-19T10:27:23.298Z,87.28
2022-11-19T10:29:54.320Z,86.76
2022-11-19T10:32:35.850Z,86.14
2022-11-19T10:35:17.196Z,84.71
2022-11-19T10:37:57.197Z,85.21
2022-11-19T10:40:31.498Z,83.92
2022-11-19T10:43:23.369Z,86.41
2022-11-19T10:45:50.791Z,85.93
2022-11-19T10:48:23.416Z,86.52
2022-11-19T10:50:51.354Z,85.12
2022-11-19T10:53:25.679Z,83.53
2022-11-19T10:56:05.185Z,85.18
2022-11-19T10:58:58.214Z,85.45
2022-11-19T11:01:40.240Z,83.94
2022-11-19T11:04:13.788Z,84.40
2022-11-19T11:06:55.051Z,84.42
2022-11-19T11:09:41.363Z,82.81
2022-11-19T11:12:36.872Z,81.36
2022-11-19T11:15:22.410Z,81.04
2022-11-19T11:18:06.681Z,78.42
2022-11-19T11:20:36.290Z,76.78
2022-11-19T11:23:27.231Z,79.90
2022-11-19T11:26:10.607Z,78.86
2022-11-19T11:28:55.531Z,78.11
2022-11-19T11:31:35.035Z,80.03
2022-11-19T11:34:03.119Z,79.11
2022-11-19T11:36:34.211Z,79.03
2022-11-19T11:39:03.793Z,79.65
2022-11-19T11:44:25.257Z,81.04
2022-11-19T11:46:58.863Z,81.57
2022-11-19T11:49:37.612Z,81.53
2022-11-19T11:52:04.815Z,81.41
2022-11-19T11:54:32.284Z,82.29
2022-11-19T11:57:19.547Z,82.47
2022-11-19T11:59:47.262Z,82.42
2022-11-19T12:02:32.106Z,82.55
2022-11-19T12:05:17.019Z,80.87
2022-11-19T12:08:05.340Z,81.14
2022-11-19T12:10:42.981Z,81.44
2022-11-19T12:13:28.174Z,81.02
2022-11-19T12:16:03.248Z,81.26
2022-11-19T12:18:58.388Z,81.13
2022-11-19T12:22:03.242Z,78.87
2022-11-19T12:25:01.781Z,80.36
2022-11-19T12:27:54.875Z,81.05
2022-11-19T12:30:27.354Z,81.45
2022-11-19T12:33:28.209Z,80.67
2022-11-19T12:36:23.234Z,81.57
2022-11-19T12:39:20.868Z,82.02
2022-11-19T12:42:19.450Z,81.93
2022-11-19T12:44:52.296Z,82.01
2022-11-19T12:47:51.815Z,81.31
2022-11-19T12:50:38.863Z,80.94
2022-11-19T12:53:12.093Z,79.38
2022-11-19T12:55:46.851Z,79.57
2022-11-19T12:58:38.555Z,79.41
2022-11-19T13:01:12.928Z,78.75
2022-11-19T13:04:14.155Z,79.72
2022-11-19T13:07:00.912Z,80.40
2022-11-19T13:09:38.785Z,79.95
2022-11-19T13:12:17.346Z,80.28
2022-11-19T13:15:00.528Z,80.16
2022-11-19T13:17:40.570Z,80.88
2022-11-19T13:20:24.942Z,80.79
2022-11-19T13:22:55.324Z,80.99
2022-11-19T13:26:01.236Z,80.97
2022-11-19T13:28:47.778Z,79.34
2022-11-19T13:31:33.356Z,79.96
2022-11-19T13:34:19.584Z,80.11
2022-11-19T13:36:58.851Z,79.78
2022-11-19T13:39:37.009Z,77.54
2022-11-19T13:42:23.263Z,77.39
2022-11-19T13:44:50.914Z,77.06
2022-11-19T13:47:31.080Z,78.31
2022-11-19T13:50:13.549Z,80.68
2022-11-19T13:52:57.886Z,80.67
2022-11-19T13:55:37.196Z,82.37
2022-11-19T13:58:17.188Z,80.72
2022-11-19T14:01:04.073Z,82.37
2022-11-19T14:04:15.593Z,82.95
2022-11-19T14:07:00.977Z,83.26
2022-11-19T14:09:47.036Z,84.43
2022-11-19T14:12:39.349Z,85.17
2022-11-19T14:15:56.129Z,85.50
2022-11-19T14:18:53.122Z,85.82
2022-11-19T14:21:46.035Z,85.91
2022-11-19T14:24:55.050Z,85.31
2022-11-19T14:27:26.960Z,85.15
2022-11-19T14:30:01.640Z,84.90
2022-11-19T14:32:34.865Z,84.41
2022-11-19T14:35:01.944Z,84.84
2022-11-19T14:37:40.217Z,84.40
2022-11-19T14:40:16.422Z,83.88
2022-11-19T14:43:20.302Z,83.30
2022-11-19T14:46:10.493Z,83.45
2022-11-19T14:48:40.525Z,83.41
2022-11-19T14:51:11.306Z,82.93
2022-11-19T14:53:51.776Z,84.56
2022-11-19T14:56:21.941Z,83.85
2022-11-19T14:58:53.293Z,84.02
2022-11-19T15:01:21.517Z,83.42
2022-11-19T15:03:57.531Z,84.29
2022-11-19T15:06:24.854Z,84.13
2022-11-19T15:08:54.036Z,84.22
2022-11-19T15:11:21.499Z,84.17
2022-11-19T15:14:09.601Z,83.42
2022-11-19T15:16:37.432Z,82.57
2022-11-19T15:19:39.762Z,81.38
2022-11-19T15:22:25.833Z,82.15
2022-11-19T15:25:13.908Z,81.26
2022-11-19T15:28:02.783Z,82.43
2022-11-19T15:30:47.892Z,82.49
2022-11-19T15:33:37.924Z,83.00
2022-11-19T15:36:12.726Z,82.83
2022-11-19T15:38:54.226Z,82.96
2022-11-19T15:41:25.394Z,83.38
2022-11-19T15:43:56.534Z,83.51
2022-11-19T15:46:51.192Z,83.67
2022-11-19T15:49:24.440Z,83.40
2022-11-19T15:52:03.458Z,83.61
2022-11-19T15:54:38.184Z,82.73
2022-11-19T15:57:21.782Z,84.26
2022-11-19T15:59:58.101Z,84.35
2022-11-19T16:02:33.137Z,83.95
2022-11-19T16:05:00.379Z,83.56
2022-11-19T16:07:29.381Z,84.24
2022-11-19T16:09:57.259Z,84.09
2022-11-19T16:12:45.403Z,84.42
2022-11-19T16:15:43.951Z,83.54
2022-11-19T16:18:16.220Z,84.61
2022-11-19T16:20:52.938Z,84.99
2022-11-19T16:23:23.083Z,85.24
2022-11-19T16:25:50.619Z,84.08
2022-11-19T16:28:20.120Z,84.77
2022-11-19T16:30:50.956Z,85.03
2022-11-19T16:33:23.590Z,84.99
2022-11-19T16:35:53.444Z,85.58
2022-11-19T16:38:28.010Z,85.75
2022-11-19T16:41:15.035Z,86.66
2022-11-19T16:43:48.710Z,86.97
2022-11-19T16:46:21.054Z,87.15
2022-11-19T16:48:55.008Z,87.39
2022-11-19T16:51:34.347Z,86.66
2022-11-19T16:54:01.758Z,86.44
2022-11-19T16:56:34.622Z,87.41
2022-11-19T16:59:03.997Z,87.79
2022-11-19T17:01:31.204Z,88.02
2022-11-19T17:04:03.265Z,88.11
2022-11-19T17:06:33.121Z,88.00
2022-11-19T17:09:01.466Z,87.79
2022-11-19T17:12:09.172Z,87.98
2022-11-19T17:14:36.279Z,88.19
2022-11-19T17:17:03.833Z,88.43
2022-11-19T17:19:35.802Z,88.20
2022-11-19T17:22:18.163Z,88.26
2022-11-19T17:24:46.633Z,88.82
2022-11-19T17:27:29.345Z,89.43
2022-11-19T17:30:09.181Z,89.51
2022-11-19T17:32:42.768Z,89.88
2022-11-19T17:35:29.556Z,90.44
2022-11-19T17:38:10.857Z,90.77
2022-11-19T17:40:48.898Z,90.91
2022-11-19T17:43:48.532Z,91.59
2022-11-19T17:46:15.991Z,91.97
2022-11-19T17:48:45.231Z,91.93
2022-11-19T17:51:13.975Z,92.23
2022-11-19T17:53:41.367Z,92.46
2022-11-19T17:56:20.182Z,93.14
2022-11-19T17:58:47.675Z,93.41
2022-11-19T18:01:16.755Z,93.58
2022-11-19T18:03:44.326Z,93.64
2022-11-19T18:06:16.586Z,93.60
2022-11-19T18:08:44.227Z,94.29
2022-11-19T18:11:20.974Z,94.05
2022-11-19T18:13:51.291Z,94.20
2022-11-19T18:16:20.310Z,94.23
2022-11-19T18:18:47.583Z,94.11
2022-11-19T18:21:16.166Z,94.54
2022-11-19T18:23:44.832Z,94.89
2022-11-19T18:26:13.298Z,95.04
2022-11-19T18:28:44.922Z,95.32
2022-11-19T18:31:23.393Z,95.59
2022-11-19T18:33:50.797Z,95.72
2022-11-19T18:36:18.368Z,95.22
2022-11-19T18:38:46.307Z,95.24
2022-11-19T18:41:14.988Z,95.45
2022-11-19T18:44:00.746Z,95.25
2022-11-19T18:46:28.003Z,95.00
2022-11-19T18:48:55.229Z,94.95
2022-11-19T18:51:23.669Z,95.17
2022-11-19T18:53:50.988Z,95.16
2022-11-19T18:56:19.548Z,95.14
2022-11-19T18:58:47.234Z,95.71
2022-11-19T19:01:16.217Z,95.66
2022-11-19T19:03:43.864Z,95.40
2022-11-19T19:06:11.136Z,95.40
2022-11-19T19:08:38.992Z,95.57
2022-11-19T19:11:27.184Z,95.55
2022-11-19T19:13:54.712Z,95.20
2022-11-19T19:16:22.453Z,94.96
2022-11-19T19:18:49.835Z,94.50
2022-11-19T19:21:19.668Z,94.09
2022-11-19T19:23:47.415Z,94.15
2022-11-19T19:26:16.168Z,93.66
2022-11-19T19:28:44.138Z,94.15
2022-11-19T19:31:16.405Z,93.82
2022-11-19T19:33:46.265Z,94.25
2022-11-19T19:36:14.335Z,94.14
2022-11-19T19:38:42.221Z,94.14
2022-11-19T19:41:21.124Z,94.56
2022-11-19T19:43:49.633Z,94.35
2022-11-19T19:46:19.178Z,94.19
2022-11-19T19:48:48.332Z,94.44
2022-11-19T19:51:16.715Z,94.05
2022-11-19T19:53:44.431Z,94.54
2022-11-19T19:56:14.341Z,94.47
2022-11-19T19:58:43.788Z,94.98
2022-11-19T20:01:11.987Z,95.26
2022-11-19T20:03:39.469Z,95.59
2022-11-19T20:06:08.011Z,95.57
2022-11-19T20:08:39.219Z,95.84
2022-11-19T20:11:17.771Z,95.31
2022-11-19T20:13:45.610Z,95.66
2022-11-19T20:16:18.155Z,95.74
2022-11-19T20:18:47.254Z,95.69
2022-11-19T20:21:16.586Z,95.64
2022-11-19T20:23:43.829Z,95.68
2022-11-19T20:26:13.155Z,95.94
2022-11-19T20:28:40.674Z,95.89
2022-11-19T20:31:19.226Z,95.85
2022-11-19T20:33:47.842Z,95.73
2022-11-19T20:36:15.981Z,95.92
2022-11-19T20:38:45.950Z,96.13
2022-11-19T20:41:33.324Z,95.67
2022-11-19T20:44:19.591Z,95.64
2022-11-19T20:47:04.787Z,95.73
2022-11-19T20:49:34.430Z,95.99
2022-11-19T20:52:03.190Z,95.45
2022-11-19T20:54:30.666Z,95.94
2022-11-19T20:56:58.459Z,95.56
2022-11-19T20:59:26.589Z,95.88
2022-11-19T21:01:54.964Z,95.94
2022-11-19T21:04:23.416Z,95.71
2022-11-19T21:06:50.686Z,95.78
2022-11-19T21:09:19.939Z,95.86
2022-11-19T21:11:47.632Z,95.99
2022-11-19T21:14:14.845Z,95.93
2022-11-19T21:16:42.055Z,95.83
2022-11-19T21:19:10.562Z,95.70
2022-11-19T21:21:38.041Z,95.90
2022-11-19T21:24:05.504Z,95.92
2022-11-19T21:26:33.038Z,95.92
2022-11-19T21:29:00.359Z,96.18
2022-11-19T21:31:39.263Z,96.43
2022-11-19T21:34:14.737Z,96.14
2022-11-19T21:36:42.802Z,96.53
2022-11-19T21:39:11.096Z,96.27
2022-11-19T21:41:38.370Z,96.88
2022-11-19T21:44:05.932Z,96.52
2022-11-19T21:46:33.906Z,96.80
2022-11-19T21:49:01.454Z,96.77
2022-11-19T21:51:28.808Z,96.44
2022-11-19T21:53:56.959Z,96.40
2022-11-19T21:56:25.029Z,96.42
2022-11-19T21:58:52.216Z,96.38
2022-11-19T22:01:19.607Z,96.69
2022-11-19T22:03:46.911Z,96.82
2022-11-19T22:06:14.162Z,96.69
2022-11-19T22:08:42.543Z,97.05
2022-11-19T22:11:31.872Z,96.95
2022-11-19T22:14:04.599Z,96.37
2022-11-19T22:16:34.696Z,96.42
2022-11-19T22:19:02.174Z,96.19
2022-11-19T22:21:29.924Z,96.43
2022-11-19T22:23:57.394Z,96.33
2022-11-19T22:26:24.621Z,96.45
2022-11-19T22:28:51.924Z,96.05
2022-11-19T22:31:19.164Z,96.08
2022-11-19T22:33:49.686Z,96.59
2022-11-19T22:36:17.426Z,96.46
2022-11-19T22:38:44.775Z,96.64
2022-11-19T22:41:16.813Z,96.36
2022-11-19T22:43:44.172Z,96.31
2022-11-19T22:46:13.171Z,96.66
2022-11-19T22:48:41.224Z,96.81
2022-11-19T22:51:14.258Z,96.04
2022-11-19T22:53:41.584Z,96.22
2022-11-19T22:56:11.044Z,96.09
2022-11-19T22:58:38.822Z,96.21
2022-11-19T23:01:07.410Z,96.13
2022-11-19T23:03:34.738Z,96.09
2022-11-19T23:06:01.989Z,95.91
2022-11-19T23:08:29.189Z,96.37
2022-11-19T23:11:00.684Z,96.26
2022-11-19T23:13:32.125Z,96.07
2022-11-19T23:16:17.180Z,96.10
2022-11-19T23:18:51.929Z,96.16
2022-11-19T23:21:24.298Z,96.33
2022-11-19T23:23:52.281Z,96.22
2022-11-19T23:26:22.454Z,96.47
2022-11-19T23:28:50.124Z,96.37
2022-11-19T23:31:22.549Z,96.48
2022-11-19T23:33:53.394Z,96.33
2022-11-19T23:36:27.656Z,96.20
2022-11-19T23:38:55.141Z,95.56
2022-11-19T23:41:22.751Z,95.49
2022-11-19T23:43:51.123Z,95.43
2022-11-19T23:46:26.151Z,95.14
2022-11-19T23:48:55.452Z,95.18
2022-11-19T23:51:31.252Z,95.08
2022-11-19T23:53:58.947Z,95.06
2022-11-19T23:56:26.788Z,95.00
2022-11-19T23:58:54.189Z,95.10
